sensor_id;sensor_type;location;lat;lon;timestamp;P1;durP1;ratioP1;P2;durP2;ratioP2
12846;SDS011;6492;48.128;8.320;2023-03-01T00:02:31;19.27;;;11.43;;
12846;SDS011;6492;48.128;8.320;2023-03-01T00:06:33;20.77;;;11.80;;
12846;SDS011;6492;48.128;8.320;2023-03-01T00:10:35;20.37;;;11.80;;
12846;SDS011;6492;48.128;8.320;2023-03-01T00:14:38;20.10;;;11.33;;
12846;SDS011;6492;48.128;8.320;2023-03-01T00:18:43;19.53;;;11.40;;
12846;SDS011;6492;48.128;8.320;2023-03-01T00:22:45;18.47;;;11.03;;
12846;SDS011;6492;48.128;8.320;2023-03-01T00:26:47;19.60;;;11.50;;
12846;SDS011;6492;48.128;8.320;2023-03-01T00:30:50;19.60;;;11.90;;
12846;SDS011;6492;48.128;8.320;2023-03-01T00:34:51;18.27;;;11.93;;
12846;SDS011;6492;48.128;8.320;2023-03-01T00:38:55;17.70;;;10.57;;
12846;SDS011;6492;48.128;8.320;2023-03-01T00:42:57;21.47;;;13.03;;
12846;SDS011;6492;48.128;8.320;2023-03-01T00:47:01;23.33;;;12.17;;
12846;SDS011;6492;48.128;8.320;2023-03-01T00:51:06;22.50;;;11.53;;
12846;SDS011;6492;48.128;8.320;2023-03-01T00:55:09;19.87;;;12.07;;
12846;SDS011;6492;48.128;8.320;2023-03-01T00:59:12;20.20;;;12.50;;
12846;SDS011;6492;48.128;8.320;2023-03-01T01:03:16;18.70;;;11.07;;
12846;SDS011;6492;48.128;8.320;2023-03-01T01:07:17;19.80;;;11.20;;
12846;SDS011;6492;48.128;8.320;2023-03-01T01:11:20;19.47;;;11.43;;
12846;SDS011;6492;48.128;8.320;2023-03-01T01:15:23;19.73;;;11.73;;
12846;SDS011;6492;48.128;8.320;2023-03-01T01:19:27;22.50;;;12.13;;
12846;SDS011;6492;48.128;8.320;2023-03-01T01:23:31;20.57;;;10.97;;
12846;SDS011;6492;48.128;8.320;2023-03-01T01:27:33;20.10;;;11.97;;
12846;SDS011;6492;48.128;8.320;2023-03-01T01:31:36;19.10;;;11.80;;
12846;SDS011;6492;48.128;8.320;2023-03-01T01:35:40;21.47;;;12.37;;
12846;SDS011;6492;48.128;8.320;2023-03-01T01:39:42;19.23;;;12.17;;
12846;SDS011;6492;48.128;8.320;2023-03-01T01:43:45;23.60;;;13.17;;
12846;SDS011;6492;48.128;8.320;2023-03-01T01:47:48;22.57;;;13.20;;
12846;SDS011;6492;48.128;8.320;2023-03-01T01:51:53;23.23;;;13.03;;
12846;SDS011;6492;48.128;8.320;2023-03-01T01:56:00;22.30;;;13.77;;
12846;SDS011;6492;48.128;8.320;2023-03-01T02:00:05;25.63;;;14.07;;
12846;SDS011;6492;48.128;8.320;2023-03-01T02:04:09;22.20;;;12.80;;
12846;SDS011;6492;48.128;8.320;2023-03-01T02:08:13;22.60;;;13.80;;
12846;SDS011;6492;48.128;8.320;2023-03-01T02:12:17;24.77;;;13.63;;
12846;SDS011;6492;48.128;8.320;2023-03-01T02:16:21;23.93;;;14.13;;
12846;SDS011;6492;48.128;8.320;2023-03-01T02:20:25;20.70;;;12.70;;
12846;SDS011;6492;48.128;8.320;2023-03-01T02:24:34;25.20;;;14.03;;
12846;SDS011;6492;48.128;8.320;2023-03-01T02:28:43;27.33;;;15.30;;
12846;SDS011;6492;48.128;8.320;2023-03-01T02:32:45;22.77;;;14.00;;
12846;SDS011;6492;48.128;8.320;2023-03-01T02:36:49;26.03;;;15.10;;
12846;SDS011;6492;48.128;8.320;2023-03-01T02:40:55;25.83;;;15.43;;
12846;SDS011;6492;48.128;8.320;2023-03-01T02:44:59;28.37;;;15.20;;
12846;SDS011;6492;48.128;8.320;2023-03-01T02:49:01;25.67;;;14.80;;
12846;SDS011;6492;48.128;8.320;2023-03-01T02:53:04;26.93;;;15.27;;
12846;SDS011;6492;48.128;8.320;2023-03-01T02:57:12;22.43;;;14.27;;
12846;SDS011;6492;48.128;8.320;2023-03-01T03:01:15;26.20;;;15.50;;
12846;SDS011;6492;48.128;8.320;2023-03-01T03:05:18;28.37;;;16.10;;
12846;SDS011;6492;48.128;8.320;2023-03-01T03:09:21;24.00;;;15.10;;
12846;SDS011;6492;48.128;8.320;2023-03-01T03:13:23;28.87;;;15.77;;
12846;SDS011;6492;48.128;8.320;2023-03-01T03:17:29;28.77;;;15.77;;
12846;SDS011;6492;48.128;8.320;2023-03-01T03:21:31;28.53;;;15.67;;
12846;SDS011;6492;48.128;8.320;2023-03-01T03:25:36;28.33;;;17.17;;
12846;SDS011;6492;48.128;8.320;2023-03-01T03:29:38;26.60;;;16.47;;
12846;SDS011;6492;48.128;8.320;2023-03-01T03:33:41;34.70;;;17.67;;
12846;SDS011;6492;48.128;8.320;2023-03-01T03:37:43;26.57;;;16.13;;
12846;SDS011;6492;48.128;8.320;2023-03-01T03:42:03;26.87;;;16.63;;
12846;SDS011;6492;48.128;8.320;2023-03-01T03:46:05;32.80;;;18.33;;
12846;SDS011;6492;48.128;8.320;2023-03-01T03:50:10;28.20;;;16.23;;
12846;SDS011;6492;48.128;8.320;2023-03-01T03:54:12;27.77;;;17.30;;
12846;SDS011;6492;48.128;8.320;2023-03-01T03:58:15;26.60;;;16.03;;
12846;SDS011;6492;48.128;8.320;2023-03-01T04:02:19;29.33;;;17.50;;
12846;SDS011;6492;48.128;8.320;2023-03-01T04:06:24;28.33;;;17.07;;
12846;SDS011;6492;48.128;8.320;2023-03-01T04:10:26;26.77;;;17.07;;
12846;SDS011;6492;48.128;8.320;2023-03-01T04:14:29;26.93;;;16.20;;
12846;SDS011;6492;48.128;8.320;2023-03-01T04:18:31;29.60;;;16.50;;
12846;SDS011;6492;48.128;8.320;2023-03-01T04:22:34;28.40;;;16.53;;
12846;SDS011;6492;48.128;8.320;2023-03-01T04:26:35;29.97;;;17.17;;
12846;SDS011;6492;48.128;8.320;2023-03-01T04:30:38;29.63;;;17.20;;
12846;SDS011;6492;48.128;8.320;2023-03-01T04:34:41;28.63;;;16.80;;
12846;SDS011;6492;48.128;8.320;2023-03-01T04:38:45;27.00;;;16.43;;
12846;SDS011;6492;48.128;8.320;2023-03-01T04:42:48;30.27;;;17.03;;
12846;SDS011;6492;48.128;8.320;2023-03-01T04:46:50;29.13;;;17.23;;
12846;SDS011;6492;48.128;8.320;2023-03-01T04:50:51;29.90;;;17.77;;
12846;SDS011;6492;48.128;8.320;2023-03-01T04:54:54;31.43;;;17.13;;
12846;SDS011;6492;48.128;8.320;2023-03-01T04:58:56;28.00;;;16.90;;
12846;SDS011;6492;48.128;8.320;2023-03-01T05:03:02;30.13;;;17.20;;
12846;SDS011;6492;48.128;8.320;2023-03-01T05:07:04;30.07;;;17.93;;
12846;SDS011;6492;48.128;8.320;2023-03-01T05:11:07;28.70;;;17.33;;
12846;SDS011;6492;48.128;8.320;2023-03-01T05:19:20;29.13;;;17.00;;
12846;SDS011;6492;48.128;8.320;2023-03-01T05:23:22;28.43;;;18.13;;
12846;SDS011;6492;48.128;8.320;2023-03-01T05:27:25;31.77;;;17.93;;
12846;SDS011;6492;48.128;8.320;2023-03-01T05:31:27;31.30;;;18.07;;
12846;SDS011;6492;48.128;8.320;2023-03-01T05:35:32;29.47;;;17.30;;
12846;SDS011;6492;48.128;8.320;2023-03-01T05:39:34;28.43;;;17.03;;
12846;SDS011;6492;48.128;8.320;2023-03-01T05:43:39;30.50;;;18.17;;
12846;SDS011;6492;48.128;8.320;2023-03-01T05:47:44;34.87;;;18.80;;
12846;SDS011;6492;48.128;8.320;2023-03-01T05:51:47;30.00;;;18.03;;
12846;SDS011;6492;48.128;8.320;2023-03-01T05:55:52;29.63;;;17.37;;
12846;SDS011;6492;48.128;8.320;2023-03-01T05:59:55;32.63;;;21.10;;
12846;SDS011;6492;48.128;8.320;2023-03-01T06:03:57;31.97;;;18.10;;
12846;SDS011;6492;48.128;8.320;2023-03-01T06:07:59;27.80;;;17.97;;
12846;SDS011;6492;48.128;8.320;2023-03-01T06:12:01;34.33;;;18.43;;
12846;SDS011;6492;48.128;8.320;2023-03-01T06:16:05;29.10;;;17.77;;
12846;SDS011;6492;48.128;8.320;2023-03-01T06:20:09;28.33;;;17.57;;
12846;SDS011;6492;48.128;8.320;2023-03-01T06:24:12;28.30;;;17.40;;
12846;SDS011;6492;48.128;8.320;2023-03-01T06:28:13;29.10;;;17.20;;
12846;SDS011;6492;48.128;8.320;2023-03-01T06:32:24;31.87;;;18.10;;
12846;SDS011;6492;48.128;8.320;2023-03-01T06:36:26;30.60;;;17.90;;
12846;SDS011;6492;48.128;8.320;2023-03-01T06:40:28;30.37;;;18.47;;
12846;SDS011;6492;48.128;8.320;2023-03-01T06:44:31;29.27;;;17.93;;
12846;SDS011;6492;48.128;8.320;2023-03-01T06:48:34;33.50;;;20.00;;
12846;SDS011;6492;48.128;8.320;2023-03-01T06:52:36;27.97;;;18.13;;
12846;SDS011;6492;48.128;8.320;2023-03-01T06:56:37;33.23;;;18.37;;
12846;SDS011;6492;48.128;8.320;2023-03-01T07:00:39;31.20;;;18.73;;
12846;SDS011;6492;48.128;8.320;2023-03-01T07:04:58;33.77;;;18.63;;
12846;SDS011;6492;48.128;8.320;2023-03-01T07:09:00;33.20;;;18.73;;
12846;SDS011;6492;48.128;8.320;2023-03-01T07:13:02;33.10;;;19.07;;
12846;SDS011;6492;48.128;8.320;2023-03-01T07:17:04;32.40;;;19.40;;
12846;SDS011;6492;48.128;8.320;2023-03-01T07:21:07;30.53;;;19.50;;
12846;SDS011;6492;48.128;8.320;2023-03-01T07:25:12;36.40;;;21.00;;
12846;SDS011;6492;48.128;8.320;2023-03-01T07:29:14;34.43;;;20.43;;
12846;SDS011;6492;48.128;8.320;2023-03-01T07:33:16;34.07;;;19.57;;
12846;SDS011;6492;48.128;8.320;2023-03-01T07:37:19;31.67;;;18.37;;
12846;SDS011;6492;48.128;8.320;2023-03-01T07:41:21;34.97;;;19.37;;
12846;SDS011;6492;48.128;8.320;2023-03-01T07:45:23;31.80;;;19.43;;
12846;SDS011;6492;48.128;8.320;2023-03-01T07:49:25;36.20;;;20.27;;
12846;SDS011;6492;48.128;8.320;2023-03-01T07:53:29;31.53;;;19.57;;
12846;SDS011;6492;48.128;8.320;2023-03-01T07:57:31;32.20;;;18.67;;
12846;SDS011;6492;48.128;8.320;2023-03-01T08:01:33;30.27;;;19.00;;
12846;SDS011;6492;48.128;8.320;2023-03-01T08:05:35;30.20;;;18.23;;
12846;SDS011;6492;48.128;8.320;2023-03-01T08:09:38;32.87;;;19.40;;
12846;SDS011;6492;48.128;8.320;2023-03-01T08:13:40;36.53;;;20.47;;
12846;SDS011;6492;48.128;8.320;2023-03-01T08:17:42;40.07;;;21.53;;
12846;SDS011;6492;48.128;8.320;2023-03-01T08:21:44;34.37;;;19.97;;
12846;SDS011;6492;48.128;8.320;2023-03-01T08:25:47;32.77;;;19.30;;
12846;SDS011;6492;48.128;8.320;2023-03-01T08:29:49;29.97;;;18.57;;
12846;SDS011;6492;48.128;8.320;2023-03-01T08:33:51;30.00;;;17.37;;
12846;SDS011;6492;48.128;8.320;2023-03-01T08:37:56;29.80;;;17.33;;
12846;SDS011;6492;48.128;8.320;2023-03-01T08:41:59;30.50;;;18.80;;
12846;SDS011;6492;48.128;8.320;2023-03-01T08:46:00;27.83;;;18.40;;
12846;SDS011;6492;48.128;8.320;2023-03-01T08:50:03;30.70;;;18.67;;
12846;SDS011;6492;48.128;8.320;2023-03-01T08:54:05;27.77;;;17.53;;
12846;SDS011;6492;48.128;8.320;2023-03-01T08:58:10;30.00;;;17.37;;
12846;SDS011;6492;48.128;8.320;2023-03-01T09:02:18;30.97;;;17.70;;
12846;SDS011;6492;48.128;8.320;2023-03-01T09:06:20;25.43;;;16.87;;
12846;SDS011;6492;48.128;8.320;2023-03-01T09:10:22;30.87;;;17.90;;
12846;SDS011;6492;48.128;8.320;2023-03-01T09:14:25;30.87;;;18.07;;
12846;SDS011;6492;48.128;8.320;2023-03-01T09:18:27;27.90;;;17.60;;
12846;SDS011;6492;48.128;8.320;2023-03-01T09:22:29;26.37;;;16.73;;
12846;SDS011;6492;48.128;8.320;2023-03-01T09:26:31;28.93;;;17.17;;
12846;SDS011;6492;48.128;8.320;2023-03-01T09:30:34;28.40;;;18.13;;
12846;SDS011;6492;48.128;8.320;2023-03-01T09:34:36;25.90;;;16.67;;
12846;SDS011;6492;48.128;8.320;2023-03-01T09:38:52;26.77;;;17.23;;
12846;SDS011;6492;48.128;8.320;2023-03-01T09:42:55;26.97;;;16.67;;
12846;SDS011;6492;48.128;8.320;2023-03-01T09:47:04;29.53;;;17.30;;
12846;SDS011;6492;48.128;8.320;2023-03-01T09:51:12;28.83;;;17.67;;
12846;SDS011;6492;48.128;8.320;2023-03-01T09:55:20;25.00;;;15.73;;
12846;SDS011;6492;48.128;8.320;2023-03-01T09:59:28;27.00;;;16.40;;
12846;SDS011;6492;48.128;8.320;2023-03-01T10:03:43;25.73;;;16.87;;
12846;SDS011;6492;48.128;8.320;2023-03-01T10:07:53;29.30;;;16.73;;
12846;SDS011;6492;48.128;8.320;2023-03-01T10:12:04;24.03;;;15.23;;
12846;SDS011;6492;48.128;8.320;2023-03-01T10:16:10;24.80;;;15.77;;
12846;SDS011;6492;48.128;8.320;2023-03-01T10:20:19;24.40;;;15.77;;
12846;SDS011;6492;48.128;8.320;2023-03-01T10:24:22;25.10;;;16.03;;
12846;SDS011;6492;48.128;8.320;2023-03-01T10:28:25;23.10;;;16.20;;
12846;SDS011;6492;48.128;8.320;2023-03-01T10:32:31;28.03;;;16.73;;
12846;SDS011;6492;48.128;8.320;2023-03-01T10:36:35;24.97;;;16.27;;
12846;SDS011;6492;48.128;8.320;2023-03-01T10:40:51;24.80;;;15.40;;
12846;SDS011;6492;48.128;8.320;2023-03-01T10:44:54;24.50;;;15.97;;
12846;SDS011;6492;48.128;8.320;2023-03-01T10:49:05;25.23;;;16.60;;
12846;SDS011;6492;48.128;8.320;2023-03-01T10:53:25;23.80;;;15.90;;
12846;SDS011;6492;48.128;8.320;2023-03-01T10:57:31;21.97;;;14.73;;
12846;SDS011;6492;48.128;8.320;2023-03-01T11:01:38;23.77;;;15.63;;
12846;SDS011;6492;48.128;8.320;2023-03-01T11:05:56;24.03;;;16.07;;
12846;SDS011;6492;48.128;8.320;2023-03-01T11:10:15;24.30;;;16.67;;
12846;SDS011;6492;48.128;8.320;2023-03-01T11:14:21;24.13;;;16.10;;
12846;SDS011;6492;48.128;8.320;2023-03-01T11:18:24;25.80;;;16.50;;
12846;SDS011;6492;48.128;8.320;2023-03-01T11:22:32;23.63;;;15.53;;
12846;SDS011;6492;48.128;8.320;2023-03-01T11:26:38;21.33;;;15.77;;
12846;SDS011;6492;48.128;8.320;2023-03-01T11:30:44;22.53;;;15.90;;
12846;SDS011;6492;48.128;8.320;2023-03-01T11:34:54;24.13;;;16.07;;
12846;SDS011;6492;48.128;8.320;2023-03-01T11:39:01;22.83;;;15.70;;
12846;SDS011;6492;48.128;8.320;2023-03-01T11:43:09;25.60;;;16.50;;
12846;SDS011;6492;48.128;8.320;2023-03-01T11:47:22;27.13;;;16.10;;
12846;SDS011;6492;48.128;8.320;2023-03-01T11:51:38;26.33;;;16.23;;
12846;SDS011;6492;48.128;8.320;2023-03-01T11:55:58;25.77;;;16.60;;
12846;SDS011;6492;48.128;8.320;2023-03-01T12:00:17;23.73;;;15.27;;
12846;SDS011;6492;48.128;8.320;2023-03-01T12:04:30;25.27;;;15.03;;
12846;SDS011;6492;48.128;8.320;2023-03-01T12:08:52;22.13;;;15.53;;
12846;SDS011;6492;48.128;8.320;2023-03-01T12:13:10;22.63;;;15.33;;
12846;SDS011;6492;48.128;8.320;2023-03-01T12:17:48;22.30;;;15.03;;
12846;SDS011;6492;48.128;8.320;2023-03-01T12:22:06;22.20;;;14.50;;
12846;SDS011;6492;48.128;8.320;2023-03-01T12:26:28;22.33;;;15.40;;
12846;SDS011;6492;48.128;8.320;2023-03-01T12:30:36;20.33;;;14.10;;
12846;SDS011;6492;48.128;8.320;2023-03-01T12:35:09;21.70;;;15.53;;
12846;SDS011;6492;48.128;8.320;2023-03-01T12:39:24;19.27;;;14.43;;
12846;SDS011;6492;48.128;8.320;2023-03-01T12:43:41;22.53;;;14.83;;
12846;SDS011;6492;48.128;8.320;2023-03-01T12:47:54;21.03;;;14.80;;
12846;SDS011;6492;48.128;8.320;2023-03-01T12:52:10;21.67;;;15.27;;
12846;SDS011;6492;48.128;8.320;2023-03-01T12:56:16;20.77;;;15.50;;
12846;SDS011;6492;48.128;8.320;2023-03-01T13:00:24;19.83;;;13.90;;
12846;SDS011;6492;48.128;8.320;2023-03-01T13:04:35;20.70;;;14.93;;
12846;SDS011;6492;48.128;8.320;2023-03-01T13:08:48;21.43;;;14.80;;
12846;SDS011;6492;48.128;8.320;2023-03-01T13:13:01;21.03;;;14.37;;
12846;SDS011;6492;48.128;8.320;2023-03-01T13:17:29;18.03;;;13.70;;
12846;SDS011;6492;48.128;8.320;2023-03-01T13:21:32;17.00;;;13.87;;
12846;SDS011;6492;48.128;8.320;2023-03-01T13:25:35;19.97;;;14.23;;
12846;SDS011;6492;48.128;8.320;2023-03-01T13:34:47;21.33;;;14.20;;
12846;SDS011;6492;48.128;8.320;2023-03-01T13:38:55;20.83;;;15.27;;
12846;SDS011;6492;48.128;8.320;2023-03-01T13:42:59;18.80;;;13.40;;
12846;SDS011;6492;48.128;8.320;2023-03-01T13:47:28;18.03;;;13.40;;
12846;SDS011;6492;48.128;8.320;2023-03-01T13:51:30;16.67;;;12.27;;
12846;SDS011;6492;48.128;8.320;2023-03-01T13:55:34;18.50;;;12.83;;
12846;SDS011;6492;48.128;8.320;2023-03-01T13:59:47;18.53;;;12.70;;
12846;SDS011;6492;48.128;8.320;2023-03-01T14:03:49;23.90;;;14.17;;
12846;SDS011;6492;48.128;8.320;2023-03-01T14:07:51;16.93;;;13.13;;
12846;SDS011;6492;48.128;8.320;2023-03-01T14:11:59;17.03;;;12.97;;
12846;SDS011;6492;48.128;8.320;2023-03-01T14:16:15;18.77;;;13.97;;
12846;SDS011;6492;48.128;8.320;2023-03-01T14:20:26;17.50;;;13.40;;
12846;SDS011;6492;48.128;8.320;2023-03-01T14:24:31;18.50;;;13.53;;
12846;SDS011;6492;48.128;8.320;2023-03-01T14:28:34;19.20;;;14.93;;
12846;SDS011;6492;48.128;8.320;2023-03-01T14:32:40;19.37;;;14.33;;
12846;SDS011;6492;48.128;8.320;2023-03-01T14:36:42;18.37;;;14.63;;
12846;SDS011;6492;48.128;8.320;2023-03-01T14:40:43;19.90;;;14.07;;
12846;SDS011;6492;48.128;8.320;2023-03-01T14:44:46;20.40;;;15.83;;
12846;SDS011;6492;48.128;8.320;2023-03-01T14:48:53;20.67;;;14.73;;
12846;SDS011;6492;48.128;8.320;2023-03-01T14:52:59;20.83;;;14.97;;
12846;SDS011;6492;48.128;8.320;2023-03-01T14:57:03;19.90;;;14.43;;
12846;SDS011;6492;48.128;8.320;2023-03-01T15:01:05;19.77;;;14.13;;
12846;SDS011;6492;48.128;8.320;2023-03-01T15:05:09;20.40;;;15.07;;
12846;SDS011;6492;48.128;8.320;2023-03-01T15:09:12;20.53;;;14.43;;
12846;SDS011;6492;48.128;8.320;2023-03-01T15:13:20;19.87;;;15.00;;
12846;SDS011;6492;48.128;8.320;2023-03-01T15:17:26;19.23;;;14.30;;
12846;SDS011;6492;48.128;8.320;2023-03-01T15:21:33;21.83;;;15.77;;
12846;SDS011;6492;48.128;8.320;2023-03-01T15:25:36;20.03;;;14.60;;
12846;SDS011;6492;48.128;8.320;2023-03-01T15:29:38;17.83;;;13.87;;
12846;SDS011;6492;48.128;8.320;2023-03-01T15:33:40;17.33;;;13.50;;
12846;SDS011;6492;48.128;8.320;2023-03-01T15:37:48;18.90;;;14.23;;
12846;SDS011;6492;48.128;8.320;2023-03-01T15:41:50;17.80;;;14.07;;
12846;SDS011;6492;48.128;8.320;2023-03-01T15:45:55;19.53;;;14.37;;
12846;SDS011;6492;48.128;8.320;2023-03-01T15:49:59;17.83;;;13.33;;
12846;SDS011;6492;48.128;8.320;2023-03-01T15:54:05;20.93;;;14.13;;
12846;SDS011;6492;48.128;8.320;2023-03-01T15:58:15;19.57;;;13.40;;
12846;SDS011;6492;48.128;8.320;2023-03-01T16:02:20;17.73;;;12.40;;
12846;SDS011;6492;48.128;8.320;2023-03-01T16:06:30;18.47;;;12.90;;
12846;SDS011;6492;48.128;8.320;2023-03-01T16:10:33;19.43;;;12.87;;
12846;SDS011;6492;48.128;8.320;2023-03-01T16:14:36;17.37;;;12.17;;
12846;SDS011;6492;48.128;8.320;2023-03-01T16:18:44;18.43;;;12.57;;
12846;SDS011;6492;48.128;8.320;2023-03-01T16:22:47;19.57;;;12.40;;
12846;SDS011;6492;48.128;8.320;2023-03-01T16:26:50;18.73;;;12.43;;
12846;SDS011;6492;48.128;8.320;2023-03-01T16:30:52;18.27;;;12.73;;
12846;SDS011;6492;48.128;8.320;2023-03-01T16:34:54;19.67;;;12.93;;
12846;SDS011;6492;48.128;8.320;2023-03-01T16:38:58;19.77;;;12.37;;
12846;SDS011;6492;48.128;8.320;2023-03-01T16:43:04;20.87;;;13.00;;
12846;SDS011;6492;48.128;8.320;2023-03-01T16:52:01;20.53;;;13.67;;
12846;SDS011;6492;48.128;8.320;2023-03-01T16:56:03;23.60;;;14.50;;
12846;SDS011;6492;48.128;8.320;2023-03-01T17:00:09;20.77;;;13.53;;
12846;SDS011;6492;48.128;8.320;2023-03-01T17:04:15;20.37;;;13.70;;
12846;SDS011;6492;48.128;8.320;2023-03-01T17:08:17;23.17;;;13.80;;
12846;SDS011;6492;48.128;8.320;2023-03-01T17:12:26;23.53;;;14.67;;
12846;SDS011;6492;48.128;8.320;2023-03-01T17:16:36;22.33;;;14.53;;
12846;SDS011;6492;48.128;8.320;2023-03-01T17:20:39;23.53;;;14.07;;
12846;SDS011;6492;48.128;8.320;2023-03-01T17:24:53;26.43;;;15.00;;
12846;SDS011;6492;48.128;8.320;2023-03-01T17:28:57;23.23;;;15.23;;
12846;SDS011;6492;48.128;8.320;2023-03-01T17:33:04;22.07;;;13.87;;
12846;SDS011;6492;48.128;8.320;2023-03-01T17:37:07;22.43;;;13.97;;
12846;SDS011;6492;48.128;8.320;2023-03-01T17:45:17;22.77;;;14.63;;
12846;SDS011;6492;48.128;8.320;2023-03-01T17:49:20;25.27;;;14.27;;
12846;SDS011;6492;48.128;8.320;2023-03-01T17:53:22;24.80;;;15.50;;
12846;SDS011;6492;48.128;8.320;2023-03-01T17:57:34;24.70;;;15.40;;
12846;SDS011;6492;48.128;8.320;2023-03-01T18:01:40;24.57;;;15.10;;
12846;SDS011;6492;48.128;8.320;2023-03-01T18:05:49;25.00;;;14.90;;
12846;SDS011;6492;48.128;8.320;2023-03-01T18:13:56;23.67;;;15.50;;
12846;SDS011;6492;48.128;8.320;2023-03-01T18:17:58;29.23;;;17.37;;
12846;SDS011;6492;48.128;8.320;2023-03-01T18:22:01;26.53;;;16.37;;
12846;SDS011;6492;48.128;8.320;2023-03-01T18:26:04;24.73;;;16.07;;
12846;SDS011;6492;48.128;8.320;2023-03-01T18:30:07;25.20;;;16.47;;
12846;SDS011;6492;48.128;8.320;2023-03-01T18:34:10;21.33;;;16.03;;
12846;SDS011;6492;48.128;8.320;2023-03-01T18:38:13;25.90;;;16.33;;
12846;SDS011;6492;48.128;8.320;2023-03-01T18:42:16;27.30;;;16.43;;
12846;SDS011;6492;48.128;8.320;2023-03-01T18:46:19;24.93;;;16.70;;
12846;SDS011;6492;48.128;8.320;2023-03-01T18:50:21;28.40;;;18.57;;
12846;SDS011;6492;48.128;8.320;2023-03-01T18:54:24;29.43;;;18.80;;
12846;SDS011;6492;48.128;8.320;2023-03-01T18:58:28;26.40;;;16.67;;
12846;SDS011;6492;48.128;8.320;2023-03-01T19:02:30;23.30;;;15.60;;
12846;SDS011;6492;48.128;8.320;2023-03-01T19:06:32;28.23;;;16.73;;
12846;SDS011;6492;48.128;8.320;2023-03-01T19:10:36;27.20;;;17.43;;
12846;SDS011;6492;48.128;8.320;2023-03-01T19:14:38;27.67;;;17.43;;
12846;SDS011;6492;48.128;8.320;2023-03-01T19:18:41;26.90;;;17.00;;
12846;SDS011;6492;48.128;8.320;2023-03-01T19:22:49;27.87;;;16.87;;
12846;SDS011;6492;48.128;8.320;2023-03-01T19:26:54;28.63;;;16.60;;
12846;SDS011;6492;48.128;8.320;2023-03-01T19:30:59;29.17;;;17.37;;
12846;SDS011;6492;48.128;8.320;2023-03-01T19:35:02;29.17;;;17.33;;
12846;SDS011;6492;48.128;8.320;2023-03-01T19:39:05;32.30;;;18.93;;
12846;SDS011;6492;48.128;8.320;2023-03-01T19:43:09;28.93;;;18.00;;
12846;SDS011;6492;48.128;8.320;2023-03-01T19:47:22;29.97;;;17.50;;
12846;SDS011;6492;48.128;8.320;2023-03-01T19:51:24;28.30;;;17.40;;
12846;SDS011;6492;48.128;8.320;2023-03-01T19:55:26;28.63;;;17.63;;
12846;SDS011;6492;48.128;8.320;2023-03-01T19:59:29;26.53;;;16.43;;
12846;SDS011;6492;48.128;8.320;2023-03-01T20:03:31;25.67;;;16.63;;
12846;SDS011;6492;48.128;8.320;2023-03-01T20:07:34;26.60;;;16.70;;
12846;SDS011;6492;48.128;8.320;2023-03-01T20:11:36;28.37;;;16.40;;
12846;SDS011;6492;48.128;8.320;2023-03-01T20:15:40;28.33;;;15.83;;
12846;SDS011;6492;48.128;8.320;2023-03-01T20:19:43;27.27;;;16.50;;
12846;SDS011;6492;48.128;8.320;2023-03-01T20:23:45;25.30;;;15.27;;
12846;SDS011;6492;48.128;8.320;2023-03-01T20:27:46;25.30;;;16.50;;
12846;SDS011;6492;48.128;8.320;2023-03-01T20:31:52;25.27;;;16.83;;
12846;SDS011;6492;48.128;8.320;2023-03-01T20:35:54;30.77;;;18.97;;
12846;SDS011;6492;48.128;8.320;2023-03-01T20:39:55;29.20;;;18.30;;
12846;SDS011;6492;48.128;8.320;2023-03-01T20:43:57;27.30;;;16.10;;
12846;SDS011;6492;48.128;8.320;2023-03-01T20:48:01;23.47;;;15.10;;
12846;SDS011;6492;48.128;8.320;2023-03-01T20:52:04;24.00;;;14.40;;
12846;SDS011;6492;48.128;8.320;2023-03-01T20:56:07;33.70;;;20.23;;
12846;SDS011;6492;48.128;8.320;2023-03-01T21:00:11;24.57;;;16.30;;
12846;SDS011;6492;48.128;8.320;2023-03-01T21:04:15;24.40;;;15.20;;
12846;SDS011;6492;48.128;8.320;2023-03-01T21:08:26;23.90;;;15.17;;
12846;SDS011;6492;48.128;8.320;2023-03-01T21:12:29;24.23;;;14.57;;
12846;SDS011;6492;48.128;8.320;2023-03-01T21:16:37;24.13;;;15.90;;
12846;SDS011;6492;48.128;8.320;2023-03-01T21:25:16;24.40;;;14.93;;
12846;SDS011;6492;48.128;8.320;2023-03-01T21:29:17;22.77;;;14.93;;
12846;SDS011;6492;48.128;8.320;2023-03-01T21:33:19;24.20;;;15.97;;
12846;SDS011;6492;48.128;8.320;2023-03-01T21:37:22;26.87;;;16.27;;
12846;SDS011;6492;48.128;8.320;2023-03-01T21:41:27;25.77;;;16.80;;
12846;SDS011;6492;48.128;8.320;2023-03-01T21:45:30;23.60;;;14.90;;
12846;SDS011;6492;48.128;8.320;2023-03-01T21:49:31;29.20;;;16.40;;
12846;SDS011;6492;48.128;8.320;2023-03-01T21:53:34;24.67;;;15.23;;
12846;SDS011;6492;48.128;8.320;2023-03-01T21:57:37;27.80;;;15.73;;
12846;SDS011;6492;48.128;8.320;2023-03-01T22:01:42;26.60;;;15.70;;
12846;SDS011;6492;48.128;8.320;2023-03-01T22:05:52;25.83;;;15.47;;
12846;SDS011;6492;48.128;8.320;2023-03-01T22:09:56;24.17;;;14.93;;
12846;SDS011;6492;48.128;8.320;2023-03-01T22:13:58;25.60;;;15.23;;
12846;SDS011;6492;48.128;8.320;2023-03-01T22:18:00;25.23;;;15.80;;
12846;SDS011;6492;48.128;8.320;2023-03-01T22:22:01;25.97;;;15.87;;
12846;SDS011;6492;48.128;8.320;2023-03-01T22:26:05;24.03;;;14.27;;
12846;SDS011;6492;48.128;8.320;2023-03-01T22:34:36;31.90;;;16.40;;
12846;SDS011;6492;48.128;8.320;2023-03-01T22:38:38;25.10;;;14.97;;
12846;SDS011;6492;48.128;8.320;2023-03-01T22:42:42;25.40;;;15.40;;
12846;SDS011;6492;48.128;8.320;2023-03-01T22:46:45;28.03;;;15.83;;
12846;SDS011;6492;48.128;8.320;2023-03-01T22:50:47;27.77;;;15.53;;
12846;SDS011;6492;48.128;8.320;2023-03-01T22:54:52;25.27;;;14.83;;
12846;SDS011;6492;48.128;8.320;2023-03-01T22:58:55;26.37;;;15.73;;
12846;SDS011;6492;48.128;8.320;2023-03-01T23:02:57;24.07;;;15.40;;
12846;SDS011;6492;48.128;8.320;2023-03-01T23:06:59;23.43;;;15.03;;
12846;SDS011;6492;48.128;8.320;2023-03-01T23:11:01;25.77;;;16.13;;
12846;SDS011;6492;48.128;8.320;2023-03-01T23:15:05;28.07;;;15.87;;
12846;SDS011;6492;48.128;8.320;2023-03-01T23:19:08;26.10;;;15.57;;
12846;SDS011;6492;48.128;8.320;2023-03-01T23:23:10;27.37;;;16.07;;
12846;SDS011;6492;48.128;8.320;2023-03-01T23:27:11;25.57;;;14.93;;
12846;SDS011;6492;48.128;8.320;2023-03-01T23:31:16;27.90;;;15.93;;
12846;SDS011;6492;48.128;8.320;2023-03-01T23:35:18;27.23;;;15.87;;
12846;SDS011;6492;48.128;8.320;2023-03-01T23:39:20;25.80;;;15.37;;
12846;SDS011;6492;48.128;8.320;2023-03-01T23:43:22;27.97;;;15.87;;
12846;SDS011;6492;48.128;8.320;2023-03-01T23:47:25;25.27;;;15.80;;
12846;SDS011;6492;48.128;8.320;2023-03-01T23:51:27;27.20;;;16.50;;
12846;SDS011;6492;48.128;8.320;2023-03-01T23:55:28;26.43;;;15.57;;
12846;SDS011;6492;48.128;8.320;2023-03-01T23:59:31;27.67;;;17.20;;
